Time;durP1;ratioP1;P1;durP2;ratioP2;P2;SDS_P1;SDS_P2;PMS_P1;PMS_P2;Temp;Humidity;BMP_temperature;BMP_pressure;BME280_temperature;BME280_humidity;BME280_pressure;Samples;Min_cycle;Max_cycle;Signal;HPM_P1;HPM_P2
2022/09/07 00:00:53;;;;;;;3.00;2.80;;;24.60;60.20;;;;;;6151912;23;43443;-62
2022/09/07 00:03:21;;;;;;;3.20;2.90;;;24.60;60.20;;;;;;6152692;23;43495;-62
2022/09/07 00:05:50;;;;;;;3.35;3.05;;;24.60;60.20;;;;;;6152449;23;43944;-62
2022/09/07 00:08:21;;;;;;;3.55;3.10;;;24.60;60.20;;;;;;6151801;23;43715;-62
2022/09/07 00:10:53;;;;;;;;;;;24.60;60.20;;;;;;6153430;23;43381;-61
2022/09/07 00:13:23;;;;;;;3.20;3.00;;;24.60;60.20;;;;;;6153107;23;43454;-62
2022/09/07 00:15:51;;;;;;;3.58;3.20;;;24.50;60.30;;;;;;6151654;23;44977;-62
2022/09/07 00:18:19;;;;;;;3.15;2.95;;;24.50;60.30;;;;;;6152549;23;43469;-62
2022/09/07 00:20:56;;;;;;;3.38;3.08;;;24.50;60.20;;;;;;6152652;23;43385;-62
2022/09/07 00:23:23;;;;;;;3.75;3.40;;;24.50;60.30;;;;;;6152421;23;43488;-62
2022/09/07 00:25:51;;;;;;;3.00;2.80;;;24.50;60.30;;;;;;6152224;23;44002;-62
2022/09/07 00:28:20;;;;;;;3.15;2.85;;;24.50;60.30;;;;;;6151640;23;43384;-62
2022/09/07 00:30:49;;;;;;;3.00;2.80;;;24.50;61.00;;;;;;6153145;23;43367;-62
2022/09/07 00:33:16;;;;;;;3.40;3.10;;;24.50;60.40;;;;;;6152756;23;43386;-62
2022/09/07 00:35:45;;;;;;;3.25;3.05;;;24.50;60.40;;;;;;6151543;23;43722;-62
2022/09/07 00:38:12;;;;;;;2.90;2.80;;;24.50;60.40;;;;;;6152400;23;43518;-62
2022/09/07 00:40:40;;;;;;;3.53;3.13;;;24.50;60.40;;;;;;6150747;23;43415;-62
2022/09/07 00:43:14;;;;;;;3.10;2.90;;;24.50;60.40;;;;;;6151941;23;43460;-62
2022/09/07 00:45:42;;;;;;;3.30;3.10;;;24.50;60.40;;;;;;6152729;23;44664;-62
2022/09/07 00:48:15;;;;;;;3.25;3.05;;;24.50;60.40;;;;;;6152650;23;43840;-62
2022/09/07 00:50:54;;;;;;;3.28;2.97;;;24.50;60.40;;;;;;6151705;23;43461;-62
2022/09/07 00:53:45;;;;;;;3.33;3.13;;;24.50;60.40;;;;;;6152604;23;43392;-62
2022/09/07 00:56:13;;;;;;;3.40;3.20;;;24.50;60.40;;;;;;6152596;23;44949;-62
2022/09/07 00:58:42;;;;;;;3.30;3.10;;;24.50;60.40;;;;;;6152339;23;43683;-62
2022/09/07 01:01:11;;;;;;;3.72;2.92;;;24.50;60.50;;;;;;6152179;23;43480;-63
2022/09/07 01:03:44;;;;;;;2.80;2.70;;;24.50;60.50;;;;;;6151832;23;43433;-62
2022/09/07 01:06:17;;;;;;;3.63;3.33;;;24.50;61.20;;;;;;6152734;23;44027;-62
2022/09/07 01:08:48;;;;;;;3.20;3.00;;;24.40;60.50;;;;;;6152804;23;43447;-62
2022/09/07 01:11:17;;;;;;;;;;;24.40;60.60;;;;;;6151593;23;43428;-63
2022/09/07 01:13:46;;;;;;;4.25;3.30;;;24.40;60.50;;;;;;6152762;23;43989;-62
2022/09/07 01:16:50;;;;;;;3.00;2.80;;;24.40;60.60;;;;;;6152339;23;43957;-62
2022/09/07 01:19:33;;;;;;;4.93;3.35;;;24.40;60.50;;;;;;6151918;23;43844;-62
2022/09/07 01:22:18;;;;;;;3.20;2.90;;;24.40;60.60;;;;;;6152659;23;43515;-62
2022/09/07 01:25:24;;;;;;;3.25;3.05;;;24.40;60.60;;;;;;6152086;23;43376;-62
2022/09/07 01:28:04;;;;;;;3.60;3.30;;;24.40;60.60;;;;;;6152172;23;44917;-62
2022/09/07 01:30:36;;;;;;;3.20;3.00;;;24.40;60.70;;;;;;6152448;23;43713;-62
2022/09/07 01:33:29;;;;;;;3.22;3.03;;;24.40;60.70;;;;;;6152213;23;43416;-62
2022/09/07 01:36:11;;;;;;;3.40;2.97;;;24.40;60.70;;;;;;6153016;23;43502;-62
2022/09/07 01:38:46;;;;;;;3.60;3.30;;;24.30;60.70;;;;;;6151654;23;44679;-62
2022/09/07 01:41:48;;;;;;;3.10;2.90;;;24.30;60.70;;;;;;6152361;23;43372;-62
2022/09/07 01:44:34;;;;;;;3.20;3.00;;;24.30;60.90;;;;;;6148735;23;43987;-62
2022/09/07 01:47:09;;;;;;;3.58;3.28;;;24.30;60.70;;;;;;6152391;23;43469;-63
2022/09/07 01:50:13;;;;;;;3.35;3.10;;;24.30;60.70;;;;;;6152257;23;44701;-63
2022/09/07 01:53:10;;;;;;;3.05;2.85;;;24.30;60.70;;;;;;6086555;23;43680;-62
2022/09/07 01:55:53;;;;;;;3.30;3.00;;;24.30;60.80;;;;;;6144239;23;43447;-62
2022/09/07 01:58:25;;;;;;;3.10;2.90;;;24.30;60.90;;;;;;6152763;23;43436;-62
2022/09/07 02:01:02;;;;;;;3.13;2.92;;;24.30;60.90;;;;;;6151695;23;44981;-62
2022/09/07 02:03:51;;;;;;;3.17;2.92;;;24.30;60.90;;;;;;6151625;23;43987;-63
2022/09/07 02:06:41;;;;;;;3.20;3.00;;;24.30;60.90;;;;;;6152677;23;43433;-62
2022/09/07 02:09:26;;;;;;;3.10;2.90;;;24.30;60.90;;;;;;6152875;23;43471;-62
2022/09/07 02:11:54;;;;;;;3.47;3.17;;;24.30;60.90;;;;;;6152395;23;44947;-62
2022/09/07 02:14:23;;;;;;;3.33;2.85;;;24.30;61.00;;;;;;6151704;23;43371;-61
2022/09/07 02:17:06;;;;;;;3.53;3.25;;;24.30;60.90;;;;;;6152509;23;43352;-61
2022/09/07 02:19:45;;;;;;;3.10;2.90;;;24.20;60.90;;;;;;6152471;23;43464;-61
2022/09/07 02:22:15;;;;;;;3.08;2.88;;;24.20;60.90;;;;;;6151526;23;43782;-60
2022/09/07 02:24:50;;;;;;;3.75;3.40;;;24.20;60.90;;;;;;6152363;23;43723;-60
2022/09/07 02:27:23;;;;;;;3.40;3.10;;;24.30;60.90;;;;;;6152662;23;43457;-61
2022/09/07 02:29:51;;;;;;;3.70;3.40;;;24.20;60.90;;;;;;6151326;23;43484;-60
2022/09/07 02:32:18;;;;;;;3.40;3.10;;;24.20;60.90;;;;;;6152028;23;43778;-63
2022/09/07 02:34:46;;;;;;;4.10;3.50;;;24.20;61.00;;;;;;6151443;23;43360;-61
2022/09/07 02:37:16;;;;;;;3.55;3.25;;;24.20;60.90;;;;;;6152484;23;43443;-62
2022/09/07 02:39:43;;;;;;;3.88;3.17;;;24.20;60.90;;;;;;6150646;23;43400;-61
2022/09/07 02:42:11;;;;;;;3.15;2.95;;;24.20;61.00;;;;;;6151170;23;43802;-61
2022/09/07 02:44:41;;;;;;;3.60;3.30;;;24.20;60.90;;;;;;6152489;23;43538;-61
2022/09/07 02:47:26;;;;;;;3.47;3.17;;;24.10;60.90;;;;;;6152284;23;43955;-61
2022/09/07 02:49:54;;;;;;;4.70;3.15;;;24.10;60.90;;;;;;6151969;23;43420;-61
2022/09/07 02:52:50;;;;;;;3.22;2.95;;;24.10;61.00;;;;;;6152173;23;44909;-61
2022/09/07 02:55:42;;;;;;;3.60;3.30;;;24.10;61.00;;;;;;6152694;23;43322;-61
2022/09/07 02:58:44;;;;;;;3.80;3.15;;;24.10;61.00;;;;;;6150686;23;43322;-61
2022/09/07 03:01:46;;;;;;;3.15;2.95;;;24.10;61.00;;;;;;6152491;23;43471;-61
2022/09/07 03:04:34;;;;;;;3.88;3.47;;;24.10;61.10;;;;;;6151636;23;43767;-61
2022/09/07 03:07:14;;;;;;;3.42;3.13;;;24.10;61.10;;;;;;6152623;23;43360;-61
2022/09/07 03:09:46;;;;;;;3.40;3.10;;;24.10;61.10;;;;;;6152275;23;43325;-61
2022/09/07 03:12:14;;;;;;;3.47;3.05;;;24.10;61.10;;;;;;6151520;23;43428;-61
2022/09/07 03:14:42;;;;;;;4.05;3.38;;;24.10;61.10;;;;;;6150635;23;43749;-61
2022/09/07 03:17:10;;;;;;;3.53;3.20;;;24.10;61.10;;;;;;6150905;23;43896;-61
2022/09/07 03:19:38;;;;;;;3.15;2.85;;;24.00;61.10;;;;;;6152012;23;43408;-61
2022/09/07 03:22:06;;;;;;;3.03;2.78;;;24.10;61.10;;;;;;6151755;23;43431;-61
2022/09/07 03:24:33;;;;;;;3.28;2.97;;;24.10;61.10;;;;;;6151201;23;44817;-61
2022/09/07 03:27:00;;;;;;;3.40;3.10;;;24.00;61.10;;;;;;6152071;23;43376;-61
2022/09/07 03:29:28;;;;;;;3.10;2.80;;;24.00;61.10;;;;;;6151115;23;43345;-61
2022/09/07 03:31:55;;;;;;;3.90;3.50;;;24.10;61.20;;;;;;6151272;23;43395;-61
2022/09/07 03:34:23;;;;;;;3.28;2.97;;;24.00;61.10;;;;;;6152153;23;44629;-61
2022/09/07 03:36:50;;;;;;;2.90;2.70;;;24.00;61.10;;;;;;6151428;23;43615;-61
2022/09/07 03:39:22;;;;;;;4.68;3.10;;;24.00;61.10;;;;;;6151292;23;43539;-61
2022/09/07 03:41:50;;;;;;;3.20;2.90;;;24.00;61.20;;;;;;6151455;23;43539;-61
2022/09/07 03:44:17;;;;;;;3.00;2.70;;;24.00;61.20;;;;;;6151977;23;44800;-61
2022/09/07 03:46:44;;;;;;;3.10;2.60;;;24.00;61.20;;;;;;6151402;23;43359;-61
2022/09/07 03:49:13;;;;;;;4.20;2.80;;;24.00;61.20;;;;;;6150351;23;43359;-61
2022/09/07 03:51:42;;;;;;;3.22;2.92;;;24.00;61.20;;;;;;6151283;23;43498;-61
2022/09/07 03:54:09;;;;;;;3.20;2.90;;;24.00;61.20;;;;;;6151055;23;44027;-61
2022/09/07 03:56:37;;;;;;;2.80;2.60;;;24.00;61.20;;;;;;6151749;23;43692;-61
2022/09/07 03:59:04;;;;;;;2.88;2.67;;;24.00;61.20;;;;;;6151850;23;43384;-61
2022/09/07 04:01:32;;;;;;;2.95;2.75;;;24.00;61.20;;;;;;6151449;23;43477;-61
2022/09/07 04:04:01;;;;;;;3.25;2.40;;;24.00;61.20;;;;;;6151905;23;44666;-61
2022/09/07 04:06:30;;;;;;;3.55;2.70;;;24.00;61.20;;;;;;6150482;23;43453;-62
2022/09/07 04:09:04;;;;;;;2.92;2.63;;;24.00;61.20;;;;;;6152070;23;43486;-61
2022/09/07 04:11:32;;;;;;;2.95;2.60;;;23.90;61.20;;;;;;6151555;23;43475;-61
2022/09/07 04:13:59;;;;;;;2.88;2.67;;;24.00;61.30;;;;;;6149386;23;43708;-61
2022/09/07 04:16:27;;;;;;;3.03;2.53;;;23.90;61.20;;;;;;6151383;23;43997;-61
2022/09/07 04:18:56;;;;;;;3.08;2.40;;;24.00;61.20;;;;;;6151902;23;43449;-61
2022/09/07 04:21:25;;;;;;;3.22;2.50;;;24.00;61.20;;;;;;6150147;23;43450;-61
2022/09/07 04:23:53;;;;;;;2.78;2.58;;;23.90;61.10;;;;;;6151624;23;44007;-63
2022/09/07 04:26:24;;;;;;;2.58;2.38;;;24.00;61.20;;;;;;6150061;23;43655;-61
2022/09/07 04:28:52;;;;;;;3.47;2.50;;;24.00;61.30;;;;;;6152392;23;43364;-61
2022/09/07 04:31:21;;;;;;;3.15;2.35;;;23.90;61.20;;;;;;6152636;23;44028;-63
2022/09/07 04:33:50;;;;;;;2.58;2.38;;;23.90;61.20;;;;;;6152483;23;44082;-61
2022/09/07 04:36:19;;;;;;;2.25;2.15;;;23.90;61.30;;;;;;6151811;23;43945;-61
2022/09/07 04:38:52;;;;;;;2.60;2.40;;;23.90;61.30;;;;;;6152773;23;43402;-61
2022/09/07 04:41:20;;;;;;;2.88;2.63;;;23.90;61.30;;;;;;6152005;23;43436;-61
2022/09/07 04:43:53;;;;;;;2.30;2.20;;;23.90;61.40;;;;;;6152685;23;44741;-61
2022/09/07 04:46:24;;;;;;;2.88;2.50;;;23.90;61.40;;;;;;6152929;23;44392;-61
2022/09/07 04:48:54;;;;;;;2.53;2.33;;;23.90;61.30;;;;;;6152038;23;43333;-61
2022/09/07 04:51:24;;;;;;;3.42;2.33;;;23.90;61.30;;;;;;6152601;23;43477;-61
2022/09/07 04:53:55;;;;;;;2.42;2.22;;;23.90;61.40;;;;;;6152459;23;44838;-61
2022/09/07 04:56:23;;;;;;;2.42;2.22;;;23.90;61.30;;;;;;6152264;23;43736;-61
2022/09/07 04:58:50;;;;;;;2.42;2.22;;;23.90;61.40;;;;;;6153042;23;43406;-61
2022/09/07 05:01:20;;;;;;;2.20;2.10;;;23.80;61.40;;;;;;6152406;23;43395;-61
2022/09/07 05:03:49;;;;;;;3.17;2.30;;;23.90;61.40;;;;;;6151805;23;44202;-62
2022/09/07 05:06:18;;;;;;;2.47;2.28;;;23.90;61.50;;;;;;6152444;23;43692;-61
2022/09/07 05:08:48;;;;;;;2.20;2.00;;;23.80;61.40;;;;;;6152583;23;43384;-61
2022/09/07 05:11:16;;;;;;;2.17;2.00;;;23.80;61.40;;;;;;6151502;23;43475;-62
2022/09/07 05:13:44;;;;;;;2.40;2.20;;;23.80;61.40;;;;;;6152244;23;43992;-61
2022/09/07 05:16:16;;;;;;;2.58;2.33;;;23.80;61.40;;;;;;6152135;23;43395;-61
2022/09/07 05:18:44;;;;;;;1.98;1.88;;;23.80;61.50;;;;;;6150918;23;43405;-61
2022/09/07 05:21:14;;;;;;;2.33;1.80;;;23.80;61.60;;;;;;6152400;23;43395;-61
2022/09/07 05:23:42;;;;;;;1.90;1.80;;;23.80;61.50;;;;;;6151599;23;44950;-61
2022/09/07 05:26:10;;;;;;;2.20;2.10;;;23.80;61.50;;;;;;6152299;23;43946;-61
2022/09/07 05:28:38;;;;;;;2.13;1.95;;;23.80;61.40;;;;;;6152363;23;43451;-61
2022/09/07 05:31:08;;;;;;;2.15;2.00;;;23.80;61.40;;;;;;6152044;23;43416;-61
2022/09/07 05:33:53;;;;;;;2.40;2.20;;;23.90;61.40;;;;;;6152189;23;43751;-61
2022/09/07 05:36:41;;;;;;;2.25;2.08;;;23.80;61.40;;;;;;6152297;23;43377;-61
2022/09/07 05:39:09;;;;;;;2.03;1.90;;;23.90;61.40;;;;;;6152110;23;43387;-62
2022/09/07 05:41:36;;;;;;;2.25;2.05;;;23.90;61.50;;;;;;6150598;23;43467;-62
2022/09/07 05:44:04;;;;;;;2.40;2.20;;;23.90;61.50;;;;;;6151944;23;44346;-62
2022/09/07 05:46:52;;;;;;;2.08;1.98;;;23.90;61.50;;;;;;6151913;23;43853;-62
2022/09/07 05:49:19;;;;;;;2.00;1.90;;;23.90;61.50;;;;;;6150851;23;43423;-62
2022/09/07 05:51:47;;;;;;;2.17;2.08;;;23.90;61.50;;;;;;6151197;23;43966;-62
2022/09/07 05:54:14;;;;;;;2.08;1.90;;;23.90;61.50;;;;;;6152803;23;44851;-61
2022/09/07 05:56:43;;;;;;;2.25;2.10;;;23.90;61.50;;;;;;6152189;23;43974;-61
2022/09/07 05:59:10;;;;;;;2.10;1.90;;;23.80;61.50;;;;;;6151831;23;43408;-61
2022/09/07 06:01:38;;;;;;;2.67;2.33;;;23.80;61.50;;;;;;6152308;23;43471;-61
2022/09/07 06:04:05;;;;;;;2.22;2.00;;;23.80;61.60;;;;;;6152440;23;44635;-61
2022/09/07 06:06:37;;;;;;;2.45;2.15;;;23.80;61.50;;;;;;6151638;23;43654;-61
2022/09/07 06:09:06;;;;;;;2.00;1.90;;;23.80;61.60;;;;;;6152707;23;43368;-61
2022/09/07 06:11:33;;;;;;;2.45;2.17;;;23.80;61.60;;;;;;6152076;23;43537;-61
2022/09/07 06:14:00;;;;;;;2.65;2.30;;;23.80;61.60;;;;;;6151955;23;44664;-61
2022/09/07 06:16:28;;;;;;;2.72;2.10;;;23.80;61.50;;;;;;6152064;23;43420;-61
2022/09/07 06:18:55;;;;;;;2.72;2.20;;;23.80;61.60;;;;;;6152848;23;43468;-61
2022/09/07 06:21:23;;;;;;;2.17;2.08;;;23.80;61.60;;;;;;6151271;23;43633;-61
2022/09/07 06:23:51;;;;;;;2.28;2.17;;;23.80;61.50;;;;;;6152029;23;44629;-60
2022/09/07 06:26:18;;;;;;;2.20;2.10;;;23.80;61.80;;;;;;6152149;23;43976;-61
2022/09/07 06:28:47;;;;;;;2.53;2.33;;;23.80;61.50;;;;;;6151623;23;43448;-61
2022/09/07 06:31:19;;;;;;;2.30;2.20;;;23.80;61.60;;;;;;6152461;23;43407;-61
2022/09/07 06:33:48;;;;;;;2.30;2.10;;;23.80;61.60;;;;;;6152213;23;44879;-61
2022/09/07 06:36:20;;;;;;;2.30;2.10;;;23.80;61.60;;;;;;6151850;23;43451;-61
2022/09/07 06:51:28;;;;;;;2.42;2.22;;;23.80;61.10;;;;;;5092141;27;43668;-62
2022/09/07 06:53:56;;;;;;;2.67;2.47;;;24.10;60.80;;;;;;5084382;27;43918;-62
2022/09/07 06:56:43;;;;;;;3.90;2.35;;;24.00;60.90;;;;;;5084971;27;43486;-62
2022/09/07 06:59:11;;;;;;;2.70;2.50;;;24.00;61.10;;;;;;5084034;27;43423;-62
2022/09/07 07:01:38;;;;;;;2.40;2.22;;;23.90;61.20;;;;;;5081260;27;44814;-62
2022/09/07 07:04:06;;;;;;;3.15;2.33;;;23.90;61.30;;;;;;5087091;27;43522;-62
2022/09/07 07:06:37;;;;;;;2.40;2.20;;;23.80;61.20;;;;;;5086812;27;43534;-62
2022/09/07 07:09:07;;;;;;;2.50;2.30;;;23.80;61.20;;;;;;5083891;27;43756;-62
2022/09/07 07:11:36;;;;;;;2.25;2.15;;;23.80;61.40;;;;;;5061077;27;44344;-62
2022/09/07 07:14:03;;;;;;;2.00;1.90;;;23.80;61.40;;;;;;5075972;28;43477;-62
2022/09/07 07:16:31;;;;;;;2.42;2.22;;;23.80;61.40;;;;;;5064949;27;43556;-62
2022/09/07 07:18:59;;;;;;;2.25;2.15;;;23.80;61.40;;;;;;5056871;28;43564;-62
2022/09/07 07:21:26;;;;;;;2.22;2.13;;;23.80;61.40;;;;;;5056499;28;44675;-62
2022/09/07 07:24:14;;;;;;;2.40;2.20;;;23.80;61.40;;;;;;5055886;28;43897;-62
2022/09/07 07:26:47;;;;;;;2.20;2.10;;;23.80;61.40;;;;;;5057106;28;43526;-62
2022/09/07 07:45:11;;;;;;;3.55;2.75;;;23.60;61.20;;;;;;5073791;27;43710;-59
